createdAt,value
2018-08-18T00:00:19.015Z,0.00
2018-08-18T00:01:18.979Z,0.00
2018-08-18T00:02:18.877Z,0.00
2018-08-18T00:03:18.781Z,0.00
2018-08-18T00:04:18.707Z,0.00
2018-08-18T00:05:18.628Z,0.00
2018-08-18T00:06:18.569Z,0.00
2018-08-18T00:07:18.481Z,0.00
2018-08-18T00:08:18.383Z,0.00
2018-08-18T00:09:18.330Z,0.00
2018-08-18T00:10:18.226Z,0.00
2018-08-18T00:11:18.153Z,0.00
2018-08-18T00:12:18.062Z,0.00
2018-08-18T00:15:00.365Z,0.00
2018-08-18T00:16:00.264Z,0.00
2018-08-18T00:17:00.195Z,0.00
2018-08-18T00:19:42.344Z,0.00
2018-08-18T00:20:42.270Z,0.00
2018-08-18T00:21:42.180Z,0.00
2018-08-18T00:22:43.137Z,0.00
2018-08-18T00:23:42.029Z,0.00
2018-08-18T00:26:23.840Z,0.00
2018-08-18T00:27:23.770Z,0.00
2018-08-18T00:28:23.710Z,0.00
2018-08-18T00:31:05.839Z,0.00
2018-08-18T00:32:05.772Z,0.00
2018-08-18T00:33:05.705Z,0.00
2018-08-18T00:34:05.616Z,0.00
2018-08-18T00:35:05.527Z,0.00
2018-08-18T00:36:05.443Z,0.00
2018-08-18T00:37:05.360Z,0.00
2018-08-18T00:38:05.303Z,0.00
2018-08-18T00:39:05.221Z,0.00
2018-08-18T00:40:05.136Z,0.00
2018-08-18T00:41:05.056Z,0.00
2018-08-18T00:42:04.974Z,0.00
2018-08-18T00:43:04.911Z,0.00
2018-08-18T00:44:04.814Z,0.00
2018-08-18T00:45:04.730Z,0.00
2018-08-18T00:46:04.663Z,0.00
2018-08-18T00:47:04.582Z,0.00
2018-08-18T00:48:04.529Z,0.00
2018-08-18T00:49:04.429Z,0.00
2018-08-18T00:51:46.349Z,0.00
2018-08-18T00:54:28.366Z,0.00
2018-08-18T00:55:28.272Z,0.00
2018-08-18T00:56:28.197Z,0.00
2018-08-18T00:59:10.368Z,0.00
2018-08-18T01:00:10.298Z,0.00
2018-08-18T01:01:10.187Z,0.00
2018-08-18T01:02:10.112Z,0.00
2018-08-18T01:03:10.039Z,0.00
2018-08-18T01:04:09.980Z,0.00
2018-08-18T01:05:09.890Z,0.00
2018-08-18T01:07:51.848Z,0.00
2018-08-18T01:08:51.815Z,0.00
2018-08-18T01:09:51.695Z,0.00
2018-08-18T01:10:51.681Z,0.00
2018-08-18T01:11:51.564Z,0.00
2018-08-18T01:12:51.518Z,0.00
2018-08-18T01:13:51.503Z,0.00
2018-08-18T01:14:51.380Z,0.00
2018-08-18T01:15:51.263Z,0.00
2018-08-18T01:16:51.142Z,0.00
2018-08-18T01:17:51.064Z,0.00
2018-08-18T01:18:50.993Z,0.00
2018-08-18T01:19:50.930Z,0.00
2018-08-18T01:20:50.830Z,0.00
2018-08-18T01:21:50.729Z,0.00
2018-08-18T01:24:32.895Z,0.00
2018-08-18T01:25:32.782Z,0.00
2018-08-18T01:26:32.721Z,0.00
2018-08-18T01:27:32.629Z,0.00
2018-08-18T01:28:32.538Z,0.00
2018-08-18T01:29:32.496Z,0.00
2018-08-18T01:30:32.378Z,0.00
2018-08-18T01:31:32.305Z,0.00
2018-08-18T01:32:32.218Z,0.00
2018-08-18T01:35:14.391Z,0.00
2018-08-18T01:36:14.287Z,0.00
2018-08-18T01:37:14.202Z,0.00
2018-08-18T01:38:14.127Z,0.00
2018-08-18T01:39:14.038Z,0.00
2018-08-18T01:40:13.966Z,0.00
2018-08-18T01:41:13.909Z,0.00
2018-08-18T01:42:13.805Z,0.00
2018-08-18T01:43:13.726Z,0.00
2018-08-18T01:45:55.890Z,0.00
2018-08-18T01:46:55.789Z,0.00
2018-08-18T01:47:55.716Z,0.00
2018-08-18T01:50:37.934Z,0.00
2018-08-18T01:51:37.784Z,0.00
2018-08-18T01:52:37.707Z,0.00
2018-08-18T01:53:37.650Z,0.00
2018-08-18T01:54:37.557Z,0.00
2018-08-18T01:55:37.486Z,0.00
2018-08-18T01:56:37.388Z,0.00
2018-08-18T01:57:37.332Z,0.00
2018-08-18T01:58:37.233Z,0.00
2018-08-18T01:59:37.153Z,0.00
2018-08-18T02:00:37.060Z,0.00
2018-08-18T02:01:38.010Z,0.00
2018-08-18T02:02:36.905Z,0.00
2018-08-18T02:03:36.839Z,0.00
2018-08-18T02:04:36.741Z,0.00
2018-08-18T02:05:36.682Z,0.00
2018-08-18T02:06:36.586Z,0.00
2018-08-18T02:07:36.547Z,0.00
2018-08-18T02:08:36.433Z,0.00
2018-08-18T02:09:36.351Z,0.00
2018-08-18T02:10:36.261Z,0.00
2018-08-18T02:13:18.388Z,0.00
2018-08-18T02:14:18.290Z,0.00
2018-08-18T02:15:18.223Z,0.00
2018-08-18T02:16:18.135Z,0.00
2018-08-18T02:17:18.048Z,0.00
2018-08-18T02:18:18.017Z,0.00
2018-08-18T02:19:17.903Z,0.00
2018-08-18T02:20:17.815Z,0.00
2018-08-18T02:21:17.744Z,0.00
2018-08-18T02:22:17.654Z,0.00
2018-08-18T02:23:17.576Z,0.00
2018-08-18T02:24:17.520Z,0.00
2018-08-18T02:25:17.415Z,0.00
2018-08-18T02:27:59.393Z,0.00
2018-08-18T02:28:59.317Z,0.00
2018-08-18T02:29:59.229Z,0.00
2018-08-18T02:30:59.150Z,0.00
2018-08-18T02:31:59.066Z,0.00
2018-08-18T02:32:58.984Z,0.00
2018-08-18T02:33:58.916Z,0.00
2018-08-18T02:34:58.814Z,0.00
2018-08-18T02:35:58.745Z,0.00
2018-08-18T02:36:58.678Z,0.00
2018-08-18T02:37:58.571Z,0.00
2018-08-18T02:38:58.596Z,0.00
2018-08-18T02:39:58.439Z,0.00
2018-08-18T02:40:58.334Z,0.00
2018-08-18T02:41:58.274Z,0.00
2018-08-18T02:42:58.185Z,0.00
2018-08-18T02:43:58.133Z,0.00
2018-08-18T02:44:58.039Z,0.00
2018-08-18T02:45:57.941Z,0.00
2018-08-18T02:46:57.856Z,0.00
2018-08-18T02:47:57.779Z,0.00
2018-08-18T02:48:57.703Z,0.00
2018-08-18T02:49:57.638Z,0.00
2018-08-18T02:52:39.875Z,0.00
2018-08-18T02:55:21.911Z,0.00
2018-08-18T02:58:03.888Z,0.00
2018-08-18T02:59:03.819Z,0.00
2018-08-18T03:00:03.746Z,0.00
2018-08-18T03:02:45.882Z,0.00
2018-08-18T03:03:45.813Z,0.00
2018-08-18T03:04:45.739Z,0.00
2018-08-18T03:07:27.887Z,0.00
2018-08-18T03:10:09.908Z,0.00
2018-08-18T03:11:09.810Z,0.00
2018-08-18T03:12:09.732Z,0.00
2018-08-18T03:13:09.656Z,0.00
2018-08-18T03:14:09.570Z,0.00
2018-08-18T03:15:10.508Z,0.00
2018-08-18T03:16:09.411Z,0.00
2018-08-18T03:17:09.347Z,0.00
2018-08-18T03:18:09.245Z,0.00
2018-08-18T03:19:09.177Z,0.00
2018-08-18T03:20:09.104Z,0.00
2018-08-18T03:21:09.011Z,0.00
2018-08-18T03:22:08.934Z,0.00
2018-08-18T03:23:08.882Z,0.00
2018-08-18T03:24:08.762Z,0.00
2018-08-18T03:25:08.712Z,0.00
2018-08-18T03:26:08.609Z,0.00
2018-08-18T03:27:08.536Z,0.00
2018-08-18T03:28:08.443Z,0.00
2018-08-18T03:29:08.436Z,0.00
2018-08-18T03:30:08.313Z,0.00
2018-08-18T03:32:50.400Z,0.00
2018-08-18T03:33:50.344Z,0.00
2018-08-18T03:34:50.225Z,0.00
2018-08-18T03:35:51.186Z,0.00
2018-08-18T03:36:50.092Z,0.00
2018-08-18T03:37:50.200Z,0.00
2018-08-18T03:38:50.194Z,0.00
2018-08-18T03:39:50.506Z,0.00
2018-08-18T03:40:49.772Z,0.00
2018-08-18T03:41:50.702Z,0.00
2018-08-18T03:42:49.596Z,0.00
2018-08-18T03:43:49.523Z,0.00
2018-08-18T03:44:49.423Z,0.00
2018-08-18T03:45:49.349Z,0.00
2018-08-18T03:46:49.288Z,0.00
2018-08-18T03:47:49.190Z,0.00
2018-08-18T03:48:49.109Z,0.00
2018-08-18T03:49:49.039Z,0.00
2018-08-18T03:50:48.958Z,4.00
2018-08-18T03:51:48.889Z,4.00
2018-08-18T03:52:48.787Z,0.00
2018-08-18T03:53:48.721Z,4.00
2018-08-18T03:54:48.636Z,4.00
2018-08-18T03:55:48.561Z,4.00
2018-08-18T03:56:48.488Z,4.00
2018-08-18T03:57:48.388Z,4.00
2018-08-18T03:58:48.311Z,4.00
2018-08-18T03:59:48.227Z,4.00
2018-08-18T04:00:48.153Z,8.00
2018-08-18T04:01:48.153Z,8.00
2018-08-18T04:02:48.106Z,12.00
2018-08-18T04:03:47.919Z,16.00
2018-08-18T04:04:47.818Z,16.00
2018-08-18T04:05:47.761Z,16.00
2018-08-18T04:06:47.664Z,20.00
2018-08-18T04:07:47.613Z,24.00
2018-08-18T04:08:47.500Z,24.00
2018-08-18T04:09:47.432Z,32.00
2018-08-18T04:10:47.352Z,36.00
2018-08-18T04:11:47.307Z,40.00
2018-08-18T04:12:47.207Z,44.00
2018-08-18T04:15:29.404Z,64.00
2018-08-18T04:16:29.343Z,72.00
2018-08-18T04:17:29.252Z,80.00
2018-08-18T04:18:29.189Z,88.00
2018-08-18T04:19:29.103Z,100.00
2018-08-18T04:20:29.025Z,112.00
2018-08-18T04:21:28.922Z,120.00
2018-08-18T04:22:28.843Z,132.00
2018-08-18T04:23:28.789Z,144.00
2018-08-18T04:24:28.679Z,160.00
2018-08-18T04:25:28.599Z,172.00
2018-08-18T04:28:10.932Z,212.00
2018-08-18T04:30:52.908Z,264.00
2018-08-18T04:31:52.828Z,292.00
2018-08-18T04:32:52.755Z,308.00
2018-08-18T04:33:52.675Z,328.00
2018-08-18T04:34:52.612Z,348.00
2018-08-18T04:35:52.540Z,368.00
2018-08-18T04:36:52.427Z,388.00
2018-08-18T04:37:52.351Z,416.00
2018-08-18T04:38:52.277Z,428.00
2018-08-18T04:39:52.212Z,464.00
2018-08-18T04:40:52.126Z,484.00
2018-08-18T04:41:52.028Z,516.00
2018-08-18T04:42:51.939Z,544.00
2018-08-18T04:45:34.005Z,608.00
2018-08-18T04:46:33.833Z,636.00
2018-08-18T04:47:33.745Z,664.00
2018-08-18T04:50:15.928Z,748.00
2018-08-18T04:51:16.850Z,776.00
2018-08-18T04:52:15.780Z,800.00
2018-08-18T04:53:15.675Z,836.00
2018-08-18T04:54:15.592Z,888.00
2018-08-18T04:56:57.483Z,960.00
2018-08-18T04:57:57.331Z,1012.00
2018-08-18T04:58:57.252Z,1056.00
2018-08-18T04:59:58.185Z,1072.00
2018-08-18T05:00:57.105Z,1136.00
2018-08-18T05:03:38.907Z,1204.00
2018-08-18T05:04:38.832Z,1256.00
2018-08-18T05:05:38.762Z,1256.00
2018-08-18T05:08:20.910Z,1380.00
2018-08-18T05:11:02.928Z,1504.00
2018-08-18T05:12:02.856Z,1484.00
2018-08-18T05:13:02.754Z,1608.00
2018-08-18T05:14:02.674Z,1544.00
2018-08-18T05:15:02.590Z,1608.00
2018-08-18T05:16:03.525Z,1620.00
2018-08-18T05:17:02.432Z,1656.00
2018-08-18T05:18:02.365Z,1704.00
2018-08-18T05:19:02.416Z,1736.00
2018-08-18T05:20:02.199Z,1772.00
2018-08-18T05:21:02.131Z,1928.00
2018-08-18T05:22:02.037Z,1860.00
2018-08-18T05:23:01.955Z,1900.00
2018-08-18T05:24:01.878Z,1908.00
2018-08-18T05:25:01.785Z,1980.00
2018-08-18T05:26:02.726Z,2000.00
2018-08-18T05:27:01.651Z,2036.00
2018-08-18T05:28:01.553Z,2116.00
2018-08-18T05:29:01.464Z,2160.00
2018-08-18T05:30:01.393Z,2264.00
2018-08-18T05:31:01.321Z,2144.00
2018-08-18T05:32:01.277Z,2224.00
2018-08-18T05:33:01.162Z,2268.00
2018-08-18T05:35:43.427Z,2252.00
2018-08-18T05:36:43.404Z,2260.00
2018-08-18T05:37:43.274Z,2256.00
2018-08-18T05:40:25.414Z,2400.00
2018-08-18T05:41:25.367Z,2464.00
2018-08-18T05:42:25.255Z,2476.00
2018-08-18T05:43:25.193Z,2572.00
2018-08-18T05:44:25.102Z,2536.00
2018-08-18T05:45:25.024Z,2572.00
2018-08-18T05:46:24.964Z,2584.00
2018-08-18T05:47:25.889Z,2596.00
2018-08-18T05:48:24.786Z,2652.00
2018-08-18T05:51:06.927Z,2628.00
2018-08-18T05:52:06.847Z,2692.00
2018-08-18T05:53:06.786Z,2744.00
2018-08-18T05:54:06.685Z,2808.00
2018-08-18T05:55:06.624Z,2924.00
2018-08-18T05:56:06.529Z,3052.00
2018-08-18T05:57:06.442Z,3184.00
2018-08-18T05:58:07.388Z,3316.00
2018-08-18T05:59:06.277Z,3544.00
2018-08-18T06:00:06.211Z,3716.00
2018-08-18T06:01:06.125Z,3944.00
2018-08-18T06:02:06.041Z,4052.00
2018-08-18T06:03:05.990Z,4260.00
2018-08-18T06:04:05.909Z,4444.00
2018-08-18T06:05:05.809Z,4852.00
2018-08-18T06:07:47.945Z,5776.00
2018-08-18T06:08:47.868Z,6272.00
2018-08-18T06:09:47.767Z,6452.00
2018-08-18T06:10:47.691Z,6572.00
2018-08-18T06:11:47.620Z,6628.00
2018-08-18T06:12:47.535Z,6940.00
2018-08-18T06:13:47.469Z,7040.00
2018-08-18T06:14:47.377Z,7260.00
2018-08-18T06:15:47.289Z,7312.00
2018-08-18T06:16:47.235Z,7532.00
2018-08-18T06:17:47.124Z,7528.00
2018-08-18T06:18:47.069Z,7544.00
2018-08-18T06:19:46.977Z,7568.00
2018-08-18T06:20:46.893Z,7652.00
2018-08-18T06:21:46.820Z,7696.00
2018-08-18T06:22:46.751Z,8060.00
2018-08-18T06:23:46.680Z,7924.00
2018-08-18T06:26:28.940Z,7876.00
2018-08-18T06:27:28.852Z,7892.00
2018-08-18T06:28:28.784Z,8152.00
2018-08-18T06:29:28.729Z,8328.00
2018-08-18T06:30:28.624Z,8424.00
2018-08-18T06:31:28.561Z,8452.00
2018-08-18T06:32:28.458Z,8372.00
2018-08-18T06:33:28.415Z,8592.00
2018-08-18T06:34:28.378Z,8604.00
2018-08-18T06:35:28.231Z,8652.00
2018-08-18T06:36:28.154Z,8784.00
2018-08-18T06:39:10.428Z,8912.00
2018-08-18T06:40:10.468Z,9072.00
2018-08-18T06:41:10.315Z,9080.00
2018-08-18T06:42:10.243Z,9304.00
2018-08-18T06:43:10.123Z,9192.00
2018-08-18T06:44:10.072Z,9260.00
2018-08-18T06:45:10.004Z,9376.00
2018-08-18T06:46:09.910Z,9316.00
2018-08-18T06:47:09.827Z,9740.00
2018-08-18T06:49:51.971Z,9732.00
2018-08-18T06:50:51.868Z,9932.00
2018-08-18T06:51:51.803Z,9912.00
2018-08-18T06:52:51.720Z,10056.00
2018-08-18T06:53:51.632Z,10224.00
2018-08-18T06:54:51.738Z,10192.00
2018-08-18T06:55:51.473Z,10488.00
2018-08-18T06:56:51.438Z,10364.00
2018-08-18T06:57:51.328Z,10624.00
2018-08-18T06:58:51.272Z,10660.00
2018-08-18T06:59:51.210Z,10592.00
2018-08-18T07:00:51.113Z,10616.00
2018-08-18T07:01:51.052Z,10720.00
2018-08-18T07:02:50.956Z,10752.00
2018-08-18T07:03:50.868Z,10896.00
2018-08-18T07:04:50.808Z,10960.00
2018-08-18T07:05:50.800Z,11552.00
2018-08-18T07:06:50.687Z,10956.00
2018-08-18T07:07:50.572Z,12548.00
2018-08-18T07:08:50.508Z,12260.00
2018-08-18T07:09:50.423Z,12492.00
2018-08-18T07:10:50.366Z,12640.00
2018-08-18T07:11:50.269Z,12792.00
2018-08-18T07:12:50.210Z,12552.00
2018-08-18T07:13:50.129Z,13344.00
2018-08-18T07:14:50.053Z,13472.00
2018-08-18T07:15:50.007Z,13984.00
2018-08-18T07:16:49.915Z,13024.00
2018-08-18T07:17:49.819Z,15648.00
2018-08-18T07:18:49.758Z,14816.00
2018-08-18T07:19:49.697Z,17696.00
2018-08-18T07:20:49.654Z,16384.00
2018-08-18T07:21:49.538Z,19680.00
2018-08-18T07:22:49.459Z,16032.00
2018-08-18T07:23:49.388Z,16160.00
2018-08-18T07:24:49.313Z,16480.00
2018-08-18T07:25:49.236Z,16992.00
2018-08-18T07:26:50.212Z,17664.00
2018-08-18T07:27:49.090Z,17888.00
2018-08-18T07:28:49.118Z,17856.00
2018-08-18T07:29:48.938Z,18144.00
2018-08-18T07:30:48.878Z,18624.00
2018-08-18T07:31:48.820Z,18752.00
2018-08-18T07:34:30.955Z,19872.00
2018-08-18T07:37:13.048Z,21376.00
2018-08-18T07:38:12.908Z,21504.00
2018-08-18T07:39:12.882Z,21856.00
2018-08-18T07:40:12.748Z,21888.00
2018-08-18T07:41:12.677Z,22272.00
2018-08-18T07:42:12.640Z,22912.00
2018-08-18T07:43:12.544Z,23008.00
2018-08-18T07:45:54.462Z,24416.00
2018-08-18T07:46:54.402Z,25184.00
2018-08-18T07:47:54.365Z,25536.00
2018-08-18T07:48:54.263Z,25632.00
2018-08-18T07:49:54.176Z,26144.00
2018-08-18T07:50:54.106Z,27040.00
2018-08-18T07:51:54.034Z,27296.00
2018-08-18T07:52:54.019Z,26880.00
2018-08-18T07:53:54.015Z,27136.00
2018-08-18T07:54:53.824Z,27488.00
2018-08-18T07:55:53.748Z,28544.00
2018-08-18T07:56:53.696Z,28704.00
2018-08-18T07:57:53.642Z,28672.00
2018-08-18T08:00:35.469Z,29408.00
2018-08-18T08:01:35.413Z,15840.00
2018-08-18T08:02:35.326Z,30880.00
2018-08-18T08:03:35.305Z,31168.00
2018-08-18T08:04:35.184Z,31296.00
2018-08-18T08:05:35.139Z,32320.00
2018-08-18T08:06:35.056Z,32768.00
2018-08-18T08:07:34.984Z,32672.00
2018-08-18T08:08:34.993Z,33664.00
2018-08-18T08:11:16.983Z,35040.00
2018-08-18T08:12:16.914Z,34592.00
2018-08-18T08:13:16.867Z,32352.00
2018-08-18T08:14:16.780Z,33856.00
2018-08-18T08:15:16.693Z,35808.00
2018-08-18T08:16:16.632Z,37184.00
2018-08-18T08:17:16.544Z,38304.00
2018-08-18T08:18:17.619Z,33088.00
2018-08-18T08:19:16.408Z,32992.00
2018-08-18T08:20:16.338Z,37856.00
2018-08-18T08:21:16.274Z,38240.00
2018-08-18T08:23:58.504Z,39776.00
2018-08-18T08:24:58.428Z,39680.00
2018-08-18T08:25:58.359Z,40576.00
2018-08-18T08:26:58.273Z,41056.00
2018-08-18T08:27:58.194Z,41632.00
2018-08-18T08:28:58.161Z,41696.00
2018-08-18T08:29:58.054Z,42496.00
2018-08-18T08:30:57.991Z,42624.00
2018-08-18T08:31:57.919Z,42624.00
2018-08-18T08:32:57.883Z,44064.00
2018-08-18T08:33:57.794Z,44704.00
2018-08-18T08:34:57.721Z,44352.00
2018-08-18T08:35:57.634Z,45216.00
2018-08-18T08:36:57.577Z,44800.00
2018-08-18T08:37:57.509Z,45632.00
2018-08-18T08:38:57.455Z,45152.00
2018-08-18T08:39:57.365Z,45152.00
2018-08-18T08:40:57.304Z,46208.00
2018-08-18T08:41:57.221Z,45760.00
2018-08-18T08:42:57.165Z,45760.00
2018-08-18T08:43:57.121Z,47488.00
2018-08-18T08:46:39.002Z,45792.00
2018-08-18T08:49:21.032Z,49056.00
2018-08-18T08:50:20.941Z,49600.00
2018-08-18T08:51:20.849Z,49536.00
2018-08-18T08:54:03.021Z,51520.00
2018-08-18T08:55:03.941Z,51360.00
2018-08-18T08:56:02.851Z,49600.00
2018-08-18T08:57:02.792Z,48160.00
2018-08-18T08:58:02.723Z,48096.00
2018-08-18T08:59:02.673Z,51520.00
2018-08-18T09:00:02.608Z,50432.00
2018-08-18T09:01:02.537Z,49888.00
2018-08-18T09:02:02.441Z,51040.00
2018-08-18T09:03:02.434Z,52224.00
2018-08-18T09:04:02.306Z,52064.00
2018-08-18T09:05:02.270Z,52544.00
2018-08-18T09:06:02.173Z,54112.00
2018-08-18T09:07:02.114Z,54528.00
2018-08-18T09:08:02.056Z,55008.00
2018-08-18T09:09:02.000Z,56320.00
2018-08-18T09:10:01.916Z,56064.00
2018-08-18T09:11:01.835Z,57408.00
2018-08-18T09:12:01.777Z,57600.00
2018-08-18T09:14:44.020Z,57728.00
2018-08-18T09:15:44.000Z,58048.00
2018-08-18T09:16:43.867Z,58464.00
2018-08-18T09:17:43.851Z,58880.00
2018-08-18T09:18:43.732Z,59424.00
2018-08-18T09:21:26.020Z,48736.00
2018-08-18T09:22:25.956Z,59808.00
2018-08-18T09:23:25.863Z,60736.00
2018-08-18T09:24:25.823Z,62624.00
2018-08-18T09:25:25.737Z,63360.00
2018-08-18T09:26:26.729Z,20448.00
2018-08-18T09:27:25.600Z,61664.00
2018-08-18T09:28:25.565Z,63008.00
2018-08-18T09:29:25.464Z,62240.00
2018-08-18T09:30:25.443Z,63872.00
2018-08-18T09:31:25.367Z,59136.00
2018-08-18T09:32:25.294Z,61824.00
2018-08-18T09:33:25.198Z,65088.00
2018-08-18T09:34:25.146Z,66112.00
2018-08-18T09:35:25.080Z,65632.00
2018-08-18T09:36:25.020Z,56544.00
2018-08-18T09:37:24.973Z,67776.00
2018-08-18T09:38:24.880Z,68640.00
2018-08-18T09:39:24.807Z,68704.00
2018-08-18T09:40:24.748Z,67040.00
2018-08-18T09:41:24.673Z,65888.00
2018-08-18T09:42:24.647Z,66304.00
2018-08-18T09:43:24.572Z,67008.00
2018-08-18T09:44:24.482Z,67936.00
2018-08-18T09:45:24.459Z,67040.00
2018-08-18T09:46:24.387Z,67712.00
2018-08-18T09:47:24.295Z,67872.00
2018-08-18T09:48:24.234Z,67008.00
2018-08-18T09:49:24.155Z,66848.00
2018-08-18T09:50:24.090Z,68416.00
2018-08-18T09:51:24.046Z,61728.00
2018-08-18T09:52:23.999Z,71872.00
2018-08-18T09:53:23.896Z,69408.00
2018-08-18T09:54:23.830Z,71424.00
2018-08-18T09:55:23.757Z,69824.00
2018-08-18T09:58:06.078Z,65920.00
2018-08-18T10:00:48.009Z,68864.00
2018-08-18T10:03:30.048Z,68320.00
2018-08-18T10:04:29.971Z,71424.00
2018-08-18T10:05:29.881Z,51488.00
2018-08-18T10:06:29.875Z,73696.00
2018-08-18T10:07:29.772Z,85568.00
2018-08-18T10:08:29.727Z,73760.00
2018-08-18T10:09:29.623Z,72864.00
2018-08-18T10:10:29.573Z,73568.00
2018-08-18T10:11:29.509Z,76224.00
2018-08-18T10:12:29.433Z,75200.00
2018-08-18T10:13:29.400Z,75936.00
2018-08-18T10:14:29.323Z,73344.00
2018-08-18T10:15:29.282Z,70048.00
2018-08-18T10:16:29.176Z,21280.00
2018-08-18T10:17:29.111Z,76800.00
2018-08-18T10:18:29.085Z,73984.00
2018-08-18T10:19:28.988Z,80096.00
2018-08-18T10:22:11.021Z,78752.00
2018-08-18T10:23:10.967Z,78976.00
2018-08-18T10:24:10.932Z,77920.00
2018-08-18T10:26:53.029Z,78624.00
2018-08-18T10:27:52.985Z,82784.00
2018-08-18T10:28:52.889Z,73248.00
2018-08-18T10:29:53.862Z,67456.00
2018-08-18T10:30:52.764Z,84768.00
2018-08-18T10:31:52.703Z,83936.00
2018-08-18T10:32:52.635Z,78144.00
2018-08-18T10:33:52.598Z,76800.00
2018-08-18T10:34:52.527Z,74560.00
2018-08-18T10:37:34.533Z,81824.00
2018-08-18T10:38:34.481Z,85440.00
2018-08-18T10:39:34.434Z,81248.00
2018-08-18T10:40:34.347Z,87456.00
2018-08-18T10:41:34.285Z,30688.00
2018-08-18T10:42:34.215Z,87680.00
2018-08-18T10:43:34.132Z,20928.00
2018-08-18T10:44:34.103Z,71968.00
2018-08-18T10:45:34.028Z,29120.00
2018-08-18T10:48:16.036Z,21280.00
2018-08-18T10:50:58.057Z,96256.00
2018-08-18T10:53:40.047Z,100064.00
2018-08-18T10:54:39.983Z,88160.00
2018-08-18T10:55:39.922Z,16756.00
2018-08-18T10:56:39.839Z,67744.00
2018-08-18T10:57:39.769Z,94208.00
2018-08-18T10:58:39.816Z,95840.00
2018-08-18T10:59:39.646Z,93504.00
2018-08-18T11:00:39.586Z,95104.00
2018-08-18T11:01:39.510Z,98784.00
2018-08-18T11:02:39.456Z,99200.00
2018-08-18T11:03:39.394Z,97728.00
2018-08-18T11:04:39.308Z,19616.00
2018-08-18T11:05:39.253Z,15464.00
2018-08-18T11:06:39.187Z,19360.00
2018-08-18T11:07:39.110Z,75552.00
2018-08-18T11:08:39.054Z,18368.00
2018-08-18T11:09:38.988Z,90144.00
2018-08-18T11:10:39.698Z,97504.00
2018-08-18T11:11:38.837Z,86848.00
2018-08-18T11:12:38.782Z,24416.00
2018-08-18T11:13:38.717Z,25280.00
2018-08-18T11:14:38.644Z,31520.00
2018-08-18T11:15:38.607Z,24448.00
2018-08-18T11:16:38.511Z,88352.00
2018-08-18T11:17:38.442Z,13664.00
2018-08-18T11:18:38.388Z,27040.00
2018-08-18T11:19:38.315Z,95904.00
2018-08-18T11:20:38.291Z,36832.00
2018-08-18T11:21:38.261Z,18976.00
2018-08-18T11:22:38.125Z,18368.00
2018-08-18T11:23:38.055Z,33504.00
2018-08-18T11:24:37.977Z,89152.00
2018-08-18T11:25:37.895Z,25408.00
2018-08-18T11:26:37.861Z,96480.00
2018-08-18T11:27:37.766Z,182464.00
2018-08-18T11:30:20.063Z,90048.00
2018-08-18T11:31:20.017Z,26432.00
2018-08-18T11:32:19.923Z,88416.00
2018-08-18T11:33:19.847Z,22016.00
2018-08-18T11:34:19.803Z,91712.00
2018-08-18T11:37:02.082Z,96960.00
2018-08-18T11:38:02.004Z,75584.00
2018-08-18T11:39:01.918Z,95296.00
2018-08-18T11:40:01.872Z,115296.00
2018-08-18T11:41:01.810Z,22912.00
2018-08-18T11:42:02.747Z,76864.00
2018-08-18T11:43:01.664Z,23904.00
2018-08-18T11:44:01.678Z,43296.00
2018-08-18T11:45:01.533Z,93248.00
2018-08-18T11:47:43.570Z,98816.00
2018-08-18T11:50:25.559Z,100640.00
2018-08-18T11:51:26.623Z,98720.00
2018-08-18T11:52:25.450Z,96928.00
2018-08-18T11:53:25.468Z,95104.00
2018-08-18T11:54:25.316Z,93920.00
2018-08-18T11:55:25.285Z,96096.00
2018-08-18T11:56:25.197Z,37632.00
2018-08-18T11:57:25.237Z,95392.00
2018-08-18T11:58:25.034Z,91520.00
2018-08-18T11:59:25.072Z,22432.00
2018-08-18T12:00:24.924Z,98944.00
2018-08-18T12:01:24.911Z,93728.00
2018-08-18T12:02:24.796Z,57792.00
2018-08-18T12:03:24.828Z,12028.00
2018-08-18T12:04:24.652Z,8964.00
2018-08-18T12:05:24.635Z,8932.00
2018-08-18T12:06:24.509Z,8980.00
2018-08-18T12:18:47.266Z,8200.00
2018-08-18T12:19:47.145Z,8100.00
2018-08-18T12:20:47.148Z,8024.00
2018-08-18T12:21:46.995Z,7956.00
2018-08-18T12:22:46.963Z,7672.00
2018-08-18T12:23:46.883Z,7196.00
2018-08-18T12:24:46.873Z,7096.00
2018-08-18T12:25:46.741Z,6944.00
2018-08-18T12:26:46.680Z,6912.00
2018-08-18T12:27:46.576Z,6980.00
2018-08-18T12:28:46.939Z,6760.00
2018-08-18T12:37:28.567Z,5580.00
2018-08-18T12:38:28.426Z,5600.00
2018-08-18T12:39:28.487Z,5652.00
2018-08-18T12:40:28.272Z,5584.00
2018-08-18T12:41:28.267Z,5348.00
2018-08-18T12:42:28.188Z,5236.00
2018-08-18T12:43:28.171Z,5180.00
2018-08-18T12:44:27.993Z,5192.00
2018-08-18T12:45:27.971Z,5020.00
2018-08-18T12:46:27.844Z,5068.00
2018-08-18T12:47:27.883Z,5116.00
2018-08-18T12:48:27.687Z,5144.00
2018-08-18T12:49:27.766Z,5144.00
2018-08-18T12:50:27.542Z,5160.00
2018-08-18T12:51:27.485Z,5152.00
2018-08-18T12:52:27.408Z,5088.00
2018-08-18T12:53:27.503Z,4988.00
2018-08-18T12:54:27.239Z,4876.00
2018-08-18T12:55:27.267Z,4732.00
2018-08-18T12:56:27.093Z,4680.00
2018-08-18T12:57:27.118Z,4620.00
2018-08-18T12:58:27.101Z,4600.00
2018-08-18T12:59:26.936Z,4516.00
2018-08-18T13:00:26.817Z,4456.00
2018-08-18T13:01:26.857Z,4460.00
2018-08-18T13:02:26.640Z,4464.00
2018-08-18T13:03:26.655Z,4472.00
2018-08-18T13:04:26.597Z,4496.00
2018-08-18T13:05:26.510Z,4972.00
2018-08-18T13:06:26.345Z,4680.00
2018-08-18T13:07:26.377Z,4528.00
2018-08-18T13:08:26.196Z,4500.00
2018-08-18T13:09:26.176Z,4436.00
2018-08-18T13:10:26.091Z,4452.00
2018-08-18T13:11:26.150Z,4432.00
2018-08-18T13:12:25.907Z,4476.00
2018-08-18T13:13:25.897Z,4504.00
2018-08-18T13:14:25.842Z,4504.00
2018-08-18T13:15:25.863Z,4516.00
2018-08-18T13:16:25.629Z,4588.00
2018-08-18T13:17:25.651Z,4560.00
2018-08-18T13:18:25.484Z,4412.00
2018-08-18T13:19:25.437Z,4340.00
2018-08-18T13:20:25.317Z,4436.00
2018-08-18T13:21:25.347Z,4344.00
2018-08-18T13:22:25.185Z,4620.00
2018-08-18T13:23:25.153Z,4332.00
2018-08-18T13:24:25.051Z,4316.00
2018-08-18T13:25:25.064Z,4240.00
2018-08-18T13:26:24.904Z,4184.00
2018-08-18T13:27:24.870Z,4132.00
2018-08-18T13:28:24.713Z,4148.00
2018-08-18T13:29:24.679Z,4440.00
2018-08-18T13:30:24.569Z,4336.00
2018-08-18T13:31:24.613Z,4300.00
2018-08-18T13:32:24.439Z,4272.00
2018-08-18T13:33:24.426Z,4376.00
2018-08-18T13:34:24.290Z,4292.00
2018-08-18T13:35:24.303Z,4252.00
2018-08-18T13:36:24.120Z,4300.00
2018-08-18T13:37:24.115Z,4232.00
2018-08-18T13:38:23.998Z,4316.00
2018-08-18T13:39:23.932Z,4280.00
2018-08-18T13:40:23.884Z,4220.00
2018-08-18T13:41:23.833Z,4204.00
2018-08-18T13:42:23.676Z,4096.00
2018-08-18T13:43:23.678Z,3936.00
2018-08-18T13:44:23.552Z,3984.00
2018-08-18T13:45:23.561Z,3912.00
2018-08-18T13:46:29.439Z,3888.00
2018-08-18T13:47:23.320Z,3888.00
2018-08-18T13:48:23.230Z,3876.00
2018-08-18T13:49:23.165Z,3900.00
2018-08-18T13:50:23.087Z,3776.00
2018-08-18T13:51:22.999Z,3752.00
2018-08-18T13:52:22.948Z,3740.00
2018-08-18T13:53:22.855Z,3700.00
2018-08-18T13:54:22.777Z,3708.00
2018-08-18T13:55:22.745Z,3720.00
2018-08-18T13:56:22.623Z,3668.00
2018-08-18T13:57:22.582Z,3596.00
2018-08-18T13:58:22.483Z,3556.00
2018-08-18T13:59:22.418Z,3508.00
2018-08-18T14:00:22.360Z,3484.00
2018-08-18T14:01:22.265Z,3476.00
2018-08-18T14:02:22.201Z,3692.00
2018-08-18T14:03:22.109Z,3792.00
2018-08-18T14:04:22.065Z,3816.00
2018-08-18T14:05:23.011Z,3780.00
2018-08-18T14:06:21.921Z,3768.00
2018-08-18T14:09:04.103Z,3744.00
2018-08-18T14:10:04.078Z,3880.00
2018-08-18T14:11:04.038Z,3812.00
2018-08-18T14:12:03.904Z,3912.00
2018-08-18T14:13:03.816Z,3880.00
2018-08-18T14:14:05.804Z,3920.00
2018-08-18T14:15:03.673Z,3984.00
2018-08-18T14:16:03.677Z,4052.00
2018-08-18T14:17:03.533Z,3972.00
2018-08-18T14:18:03.469Z,3896.00
2018-08-18T14:19:03.399Z,3688.00
2018-08-18T14:20:03.356Z,3796.00
2018-08-18T14:21:03.215Z,3724.00
2018-08-18T14:22:03.170Z,3816.00